sensor_id;sensor_type;location;lat;lon;timestamp;P1;durP1;ratioP1;P2;durP2;ratioP2
14247;SDS011;7208;49.826;6.004;2023-09-19T00:01:08;3.67;;;1.50;;
14247;SDS011;7208;49.826;6.004;2023-09-19T00:03:34;3.27;;;1.40;;
14247;SDS011;7208;49.826;6.004;2023-09-19T00:06:04;3.07;;;1.67;;
14247;SDS011;7208;49.826;6.004;2023-09-19T00:08:32;1.50;;;1.00;;
14247;SDS011;7208;49.826;6.004;2023-09-19T00:10:58;3.63;;;1.30;;
14247;SDS011;7208;49.826;6.004;2023-09-19T00:13:31;1.60;;;1.50;;
14247;SDS011;7208;49.826;6.004;2023-09-19T00:15:57;4.70;;;1.50;;
14247;SDS011;7208;49.826;6.004;2023-09-19T00:18:24;3.20;;;1.30;;
14247;SDS011;7208;49.826;6.004;2023-09-19T00:20:57;1.27;;;1.17;;
14247;SDS011;7208;49.826;6.004;2023-09-19T00:23:23;2.30;;;1.47;;
14247;SDS011;7208;49.826;6.004;2023-09-19T00:25:50;1.97;;;1.40;;
14247;SDS011;7208;49.826;6.004;2023-09-19T00:28:16;2.80;;;1.80;;
14247;SDS011;7208;49.826;6.004;2023-09-19T00:30:43;5.90;;;1.90;;
14247;SDS011;7208;49.826;6.004;2023-09-19T00:33:09;1.80;;;1.60;;
14247;SDS011;7208;49.826;6.004;2023-09-19T00:35:36;2.30;;;1.97;;
14247;SDS011;7208;49.826;6.004;2023-09-19T00:38:02;2.37;;;2.17;;
14247;SDS011;7208;49.826;6.004;2023-09-19T00:40:29;3.17;;;1.83;;
14247;SDS011;7208;49.826;6.004;2023-09-19T00:42:58;2.00;;;1.63;;
14247;SDS011;7208;49.826;6.004;2023-09-19T00:45:27;3.77;;;2.10;;
14247;SDS011;7208;49.826;6.004;2023-09-19T00:47:53;3.93;;;1.73;;
14247;SDS011;7208;49.826;6.004;2023-09-19T00:50:21;2.97;;;1.50;;
14247;SDS011;7208;49.826;6.004;2023-09-19T00:52:48;3.33;;;1.53;;
14247;SDS011;7208;49.826;6.004;2023-09-19T00:55:15;1.67;;;1.53;;
14247;SDS011;7208;49.826;6.004;2023-09-19T00:57:41;2.43;;;1.77;;
14247;SDS011;7208;49.826;6.004;2023-09-19T01:00:09;2.03;;;1.70;;
14247;SDS011;7208;49.826;6.004;2023-09-19T01:02:37;2.20;;;1.97;;
14247;SDS011;7208;49.826;6.004;2023-09-19T01:05:04;3.93;;;2.00;;
14247;SDS011;7208;49.826;6.004;2023-09-19T01:07:31;2.50;;;2.27;;
14247;SDS011;7208;49.826;6.004;2023-09-19T01:10:02;2.57;;;1.93;;
14247;SDS011;7208;49.826;6.004;2023-09-19T01:12:33;4.43;;;2.53;;
14247;SDS011;7208;49.826;6.004;2023-09-19T01:15:53;3.90;;;1.93;;
14247;SDS011;7208;49.826;6.004;2023-09-19T01:17:57;2.50;;;2.20;;
14247;SDS011;7208;49.826;6.004;2023-09-19T01:20:32;2.63;;;2.20;;
14247;SDS011;7208;49.826;6.004;2023-09-19T01:30:32;2.00;;;1.83;;
14247;SDS011;7208;49.826;6.004;2023-09-19T01:32:59;4.33;;;1.90;;
14247;SDS011;7208;49.826;6.004;2023-09-19T01:35:25;7.03;;;2.20;;
14247;SDS011;7208;49.826;6.004;2023-09-19T01:37:51;2.43;;;2.23;;
14247;SDS011;7208;49.826;6.004;2023-09-19T01:40:18;2.50;;;2.10;;
14247;SDS011;7208;49.826;6.004;2023-09-19T01:45:15;3.87;;;2.20;;
14247;SDS011;7208;49.826;6.004;2023-09-19T01:47:54;5.07;;;2.13;;
14247;SDS011;7208;49.826;6.004;2023-09-19T01:55:41;3.67;;;2.60;;
14247;SDS011;7208;49.826;6.004;2023-09-19T01:58:16;1.33;;;1.23;;
14247;SDS011;7208;49.826;6.004;2023-09-19T02:00:44;1.97;;;1.40;;
14247;SDS011;7208;49.826;6.004;2023-09-19T02:03:11;3.93;;;1.90;;
14247;SDS011;7208;49.826;6.004;2023-09-19T02:05:38;4.40;;;1.63;;
14247;SDS011;7208;49.826;6.004;2023-09-19T02:08:05;6.27;;;1.90;;
14247;SDS011;7208;49.826;6.004;2023-09-19T02:10:31;3.20;;;1.40;;
14247;SDS011;7208;49.826;6.004;2023-09-19T02:12:57;2.70;;;1.53;;
14247;SDS011;7208;49.826;6.004;2023-09-19T02:15:24;2.30;;;2.07;;
14247;SDS011;7208;49.826;6.004;2023-09-19T02:17:50;2.97;;;2.00;;
14247;SDS011;7208;49.826;6.004;2023-09-19T02:20:16;2.03;;;1.43;;
14247;SDS011;7208;49.826;6.004;2023-09-19T02:22:44;2.73;;;1.87;;
14247;SDS011;7208;49.826;6.004;2023-09-19T02:25:10;2.53;;;1.80;;
14247;SDS011;7208;49.826;6.004;2023-09-19T02:27:38;2.87;;;1.97;;
14247;SDS011;7208;49.826;6.004;2023-09-19T02:30:05;2.57;;;1.53;;
14247;SDS011;7208;49.826;6.004;2023-09-19T02:32:31;3.57;;;2.00;;
14247;SDS011;7208;49.826;6.004;2023-09-19T02:35:00;2.17;;;2.03;;
14247;SDS011;7208;49.826;6.004;2023-09-19T02:37:27;3.83;;;2.00;;
14247;SDS011;7208;49.826;6.004;2023-09-19T02:39:53;1.70;;;1.60;;
14247;SDS011;7208;49.826;6.004;2023-09-19T02:42:19;3.90;;;2.00;;
14247;SDS011;7208;49.826;6.004;2023-09-19T02:44:45;2.80;;;1.70;;
14247;SDS011;7208;49.826;6.004;2023-09-19T02:47:13;5.83;;;1.77;;
14247;SDS011;7208;49.826;6.004;2023-09-19T02:49:40;2.50;;;1.40;;
14247;SDS011;7208;49.826;6.004;2023-09-19T02:52:07;2.33;;;2.10;;
14247;SDS011;7208;49.826;6.004;2023-09-19T02:54:33;2.77;;;1.70;;
14247;SDS011;7208;49.826;6.004;2023-09-19T02:56:59;2.80;;;1.80;;
14247;SDS011;7208;49.826;6.004;2023-09-19T02:59:25;3.53;;;1.70;;
14247;SDS011;7208;49.826;6.004;2023-09-19T03:01:53;2.43;;;1.90;;
14247;SDS011;7208;49.826;6.004;2023-09-19T03:04:19;1.90;;;1.70;;
14247;SDS011;7208;49.826;6.004;2023-09-19T03:06:45;7.73;;;2.00;;
14247;SDS011;7208;49.826;6.004;2023-09-19T03:09:16;4.80;;;1.60;;
14247;SDS011;7208;49.826;6.004;2023-09-19T03:11:42;2.80;;;1.90;;
14247;SDS011;7208;49.826;6.004;2023-09-19T03:14:09;4.63;;;1.97;;
14247;SDS011;7208;49.826;6.004;2023-09-19T03:16:35;2.33;;;1.70;;
14247;SDS011;7208;49.826;6.004;2023-09-19T03:19:02;3.77;;;1.50;;
14247;SDS011;7208;49.826;6.004;2023-09-19T03:21:28;4.00;;;1.67;;
14247;SDS011;7208;49.826;6.004;2023-09-19T03:23:55;2.10;;;1.80;;
14247;SDS011;7208;49.826;6.004;2023-09-19T03:26:21;1.70;;;1.60;;
14247;SDS011;7208;49.826;6.004;2023-09-19T03:28:47;3.33;;;1.90;;
14247;SDS011;7208;49.826;6.004;2023-09-19T03:31:13;2.40;;;2.20;;
14247;SDS011;7208;49.826;6.004;2023-09-19T03:33:39;4.40;;;1.57;;
14247;SDS011;7208;49.826;6.004;2023-09-19T03:36:05;2.40;;;1.67;;
14247;SDS011;7208;49.826;6.004;2023-09-19T03:38:32;3.20;;;1.70;;
14247;SDS011;7208;49.826;6.004;2023-09-19T03:40:59;1.70;;;1.40;;
14247;SDS011;7208;49.826;6.004;2023-09-19T03:43:26;2.97;;;1.70;;
14247;SDS011;7208;49.826;6.004;2023-09-19T03:45:52;3.43;;;1.60;;
14247;SDS011;7208;49.826;6.004;2023-09-19T03:48:20;3.60;;;1.10;;
14247;SDS011;7208;49.826;6.004;2023-09-19T03:50:47;3.00;;;1.60;;
14247;SDS011;7208;49.826;6.004;2023-09-19T03:53:13;1.93;;;0.97;;
14247;SDS011;7208;49.826;6.004;2023-09-19T03:55:39;4.83;;;1.37;;
14247;SDS011;7208;49.826;6.004;2023-09-19T03:58:05;5.03;;;1.30;;
14247;SDS011;7208;49.826;6.004;2023-09-19T04:00:31;1.73;;;1.27;;
14247;SDS011;7208;49.826;6.004;2023-09-19T04:02:59;4.03;;;1.03;;
14247;SDS011;7208;49.826;6.004;2023-09-19T04:05:27;3.83;;;1.03;;
14247;SDS011;7208;49.826;6.004;2023-09-19T04:07:53;2.57;;;1.07;;
14247;SDS011;7208;49.826;6.004;2023-09-19T04:10:19;3.50;;;0.90;;
14247;SDS011;7208;49.826;6.004;2023-09-19T04:12:52;7.40;;;1.77;;
14247;SDS011;7208;49.826;6.004;2023-09-19T04:15:18;7.73;;;1.57;;
14247;SDS011;7208;49.826;6.004;2023-09-19T04:17:44;3.28;;;1.73;;
14247;SDS011;7208;49.826;6.004;2023-09-19T04:20:10;2.50;;;1.20;;
14247;SDS011;7208;49.826;6.004;2023-09-19T04:22:37;1.93;;;1.20;;
14247;SDS011;7208;49.826;6.004;2023-09-19T04:25:04;4.00;;;1.50;;
14247;SDS011;7208;49.826;6.004;2023-09-19T04:27:33;2.53;;;0.77;;
14247;SDS011;7208;49.826;6.004;2023-09-19T04:29:59;4.77;;;1.20;;
14247;SDS011;7208;49.826;6.004;2023-09-19T04:32:30;3.30;;;1.00;;
14247;SDS011;7208;49.826;6.004;2023-09-19T04:34:59;4.47;;;1.40;;
14247;SDS011;7208;49.826;6.004;2023-09-19T04:37:28;1.40;;;0.80;;
14247;SDS011;7208;49.826;6.004;2023-09-19T04:39:54;3.63;;;1.20;;
14247;SDS011;7208;49.826;6.004;2023-09-19T04:42:20;5.33;;;1.30;;
14247;SDS011;7208;49.826;6.004;2023-09-19T04:44:46;2.60;;;1.10;;
14247;SDS011;7208;49.826;6.004;2023-09-19T04:47:14;1.67;;;0.97;;
14247;SDS011;7208;49.826;6.004;2023-09-19T04:49:41;2.97;;;1.20;;
14247;SDS011;7208;49.826;6.004;2023-09-19T04:52:07;3.07;;;1.30;;
14247;SDS011;7208;49.826;6.004;2023-09-19T04:54:33;3.57;;;1.17;;
14247;SDS011;7208;49.826;6.004;2023-09-19T04:56:59;2.60;;;1.20;;
14247;SDS011;7208;49.826;6.004;2023-09-19T04:59:26;4.17;;;0.90;;
14247;SDS011;7208;49.826;6.004;2023-09-19T05:01:53;3.63;;;1.50;;
14247;SDS011;7208;49.826;6.004;2023-09-19T05:04:19;5.73;;;1.50;;
14247;SDS011;7208;49.826;6.004;2023-09-19T05:06:45;2.50;;;1.27;;
14247;SDS011;7208;49.826;6.004;2023-09-19T05:09:11;2.00;;;1.20;;
14247;SDS011;7208;49.826;6.004;2023-09-19T05:11:38;1.50;;;1.30;;
14247;SDS011;7208;49.826;6.004;2023-09-19T05:14:04;4.60;;;0.97;;
14247;SDS011;7208;49.826;6.004;2023-09-19T05:16:30;2.23;;;2.00;;
14247;SDS011;7208;49.826;6.004;2023-09-19T05:18:57;4.73;;;1.83;;
14247;SDS011;7208;49.826;6.004;2023-09-19T05:21:25;3.47;;;1.73;;
14247;SDS011;7208;49.826;6.004;2023-09-19T05:23:53;2.30;;;1.30;;
14247;SDS011;7208;49.826;6.004;2023-09-19T05:26:19;7.77;;;2.20;;
14247;SDS011;7208;49.826;6.004;2023-09-19T05:28:46;3.30;;;1.50;;
14247;SDS011;7208;49.826;6.004;2023-09-19T05:31:13;4.23;;;1.30;;
14247;SDS011;7208;49.826;6.004;2023-09-19T05:33:40;5.10;;;1.70;;
14247;SDS011;7208;49.826;6.004;2023-09-19T05:36:07;4.33;;;1.87;;
14247;SDS011;7208;49.826;6.004;2023-09-19T05:38:35;6.97;;;1.87;;
14247;SDS011;7208;49.826;6.004;2023-09-19T05:41:02;3.70;;;1.60;;
14247;SDS011;7208;49.826;6.004;2023-09-19T05:43:28;2.67;;;1.30;;
14247;SDS011;7208;49.826;6.004;2023-09-19T05:45:54;1.37;;;1.00;;
14247;SDS011;7208;49.826;6.004;2023-09-19T05:48:21;5.13;;;1.47;;
14247;SDS011;7208;49.826;6.004;2023-09-19T05:50:48;3.60;;;1.90;;
14247;SDS011;7208;49.826;6.004;2023-09-19T05:53:14;7.33;;;2.07;;
14247;SDS011;7208;49.826;6.004;2023-09-19T05:55:41;3.07;;;1.33;;
14247;SDS011;7208;49.826;6.004;2023-09-19T05:58:07;3.47;;;1.37;;
14247;SDS011;7208;49.826;6.004;2023-09-19T06:00:33;4.87;;;1.57;;
14247;SDS011;7208;49.826;6.004;2023-09-19T06:02:59;3.00;;;1.70;;
14247;SDS011;7208;49.826;6.004;2023-09-19T06:05:26;4.07;;;1.40;;
14247;SDS011;7208;49.826;6.004;2023-09-19T06:07:53;3.17;;;1.77;;
14247;SDS011;7208;49.826;6.004;2023-09-19T06:10:19;2.77;;;1.63;;
14247;SDS011;7208;49.826;6.004;2023-09-19T06:12:46;2.60;;;1.43;;
14247;SDS011;7208;49.826;6.004;2023-09-19T06:15:13;1.87;;;1.30;;
14247;SDS011;7208;49.826;6.004;2023-09-19T06:17:51;3.97;;;1.67;;
14247;SDS011;7208;49.826;6.004;2023-09-19T06:20:20;5.27;;;2.10;;
14247;SDS011;7208;49.826;6.004;2023-09-19T06:22:47;2.80;;;1.90;;
14247;SDS011;7208;49.826;6.004;2023-09-19T06:25:14;6.00;;;1.53;;
14247;SDS011;7208;49.826;6.004;2023-09-19T06:27:47;3.90;;;1.97;;
14247;SDS011;7208;49.826;6.004;2023-09-19T06:30:13;1.87;;;1.60;;
14247;SDS011;7208;49.826;6.004;2023-09-19T06:32:40;2.67;;;1.93;;
14247;SDS011;7208;49.826;6.004;2023-09-19T06:35:09;4.27;;;1.80;;
14247;SDS011;7208;49.826;6.004;2023-09-19T06:37:36;2.73;;;1.47;;
14247;SDS011;7208;49.826;6.004;2023-09-19T06:40:12;5.73;;;2.00;;
14247;SDS011;7208;49.826;6.004;2023-09-19T06:42:51;2.23;;;2.03;;
14247;SDS011;7208;49.826;6.004;2023-09-19T06:45:17;2.63;;;1.50;;
14247;SDS011;7208;49.826;6.004;2023-09-19T06:47:44;4.57;;;2.30;;
14247;SDS011;7208;49.826;6.004;2023-09-19T06:50:11;5.77;;;2.60;;
14247;SDS011;7208;49.826;6.004;2023-09-19T06:52:40;3.67;;;1.93;;
14247;SDS011;7208;49.826;6.004;2023-09-19T06:55:07;5.03;;;1.53;;
14247;SDS011;7208;49.826;6.004;2023-09-19T06:57:34;5.00;;;2.07;;
14247;SDS011;7208;49.826;6.004;2023-09-19T07:00:01;2.43;;;1.80;;
14247;SDS011;7208;49.826;6.004;2023-09-19T07:02:27;3.93;;;1.93;;
14247;SDS011;7208;49.826;6.004;2023-09-19T07:04:53;2.83;;;1.53;;
14247;SDS011;7208;49.826;6.004;2023-09-19T07:07:19;6.63;;;1.80;;
14247;SDS011;7208;49.826;6.004;2023-09-19T07:09:45;4.30;;;1.87;;
14247;SDS011;7208;49.826;6.004;2023-09-19T07:12:13;6.67;;;1.80;;
14247;SDS011;7208;49.826;6.004;2023-09-19T07:14:39;4.87;;;1.60;;
14247;SDS011;7208;49.826;6.004;2023-09-19T07:17:05;2.73;;;1.63;;
14247;SDS011;7208;49.826;6.004;2023-09-19T07:19:31;4.37;;;1.60;;
14247;SDS011;7208;49.826;6.004;2023-09-19T07:21:57;7.07;;;1.30;;
14247;SDS011;7208;49.826;6.004;2023-09-19T07:24:27;6.50;;;1.60;;
14247;SDS011;7208;49.826;6.004;2023-09-19T07:26:54;2.50;;;1.60;;
14247;SDS011;7208;49.826;6.004;2023-09-19T07:29:20;5.40;;;1.40;;
14247;SDS011;7208;49.826;6.004;2023-09-19T07:31:46;3.17;;;1.60;;
14247;SDS011;7208;49.826;6.004;2023-09-19T07:34:12;4.53;;;1.00;;
14247;SDS011;7208;49.826;6.004;2023-09-19T07:36:39;2.80;;;1.60;;
14247;SDS011;7208;49.826;6.004;2023-09-19T07:39:06;1.97;;;1.20;;
14247;SDS011;7208;49.826;6.004;2023-09-19T07:41:33;4.27;;;1.70;;
14247;SDS011;7208;49.826;6.004;2023-09-19T07:43:59;3.57;;;1.40;;
14247;SDS011;7208;49.826;6.004;2023-09-19T07:46:25;4.17;;;0.90;;
14247;SDS011;7208;49.826;6.004;2023-09-19T07:48:51;3.50;;;1.20;;
14247;SDS011;7208;49.826;6.004;2023-09-19T07:51:17;3.53;;;1.00;;
14247;SDS011;7208;49.826;6.004;2023-09-19T07:53:43;4.27;;;2.17;;
14247;SDS011;7208;49.826;6.004;2023-09-19T07:56:10;5.73;;;1.30;;
14247;SDS011;7208;49.826;6.004;2023-09-19T07:58:38;2.27;;;1.27;;
14247;SDS011;7208;49.826;6.004;2023-09-19T08:01:06;3.23;;;1.23;;
14247;SDS011;7208;49.826;6.004;2023-09-19T08:03:32;4.73;;;1.07;;
14247;SDS011;7208;49.826;6.004;2023-09-19T08:05:59;2.27;;;1.00;;
14247;SDS011;7208;49.826;6.004;2023-09-19T08:08:26;2.00;;;1.10;;
14247;SDS011;7208;49.826;6.004;2023-09-19T08:10:52;3.40;;;1.10;;
14247;SDS011;7208;49.826;6.004;2023-09-19T08:13:18;6.23;;;1.17;;
14247;SDS011;7208;49.826;6.004;2023-09-19T08:15:46;2.63;;;1.10;;
14247;SDS011;7208;49.826;6.004;2023-09-19T08:18:13;3.23;;;1.23;;
14247;SDS011;7208;49.826;6.004;2023-09-19T08:20:39;3.30;;;1.53;;
14247;SDS011;7208;49.826;6.004;2023-09-19T08:23:07;4.13;;;1.10;;
14247;SDS011;7208;49.826;6.004;2023-09-19T08:25:33;3.27;;;1.07;;
14247;SDS011;7208;49.826;6.004;2023-09-19T08:28:00;1.23;;;0.80;;
14247;SDS011;7208;49.826;6.004;2023-09-19T08:30:28;2.97;;;0.87;;
14247;SDS011;7208;49.826;6.004;2023-09-19T08:33:01;3.00;;;1.10;;
14247;SDS011;7208;49.826;6.004;2023-09-19T08:35:31;4.23;;;1.10;;
14247;SDS011;7208;49.826;6.004;2023-09-19T08:37:57;2.30;;;1.20;;
14247;SDS011;7208;49.826;6.004;2023-09-19T08:40:25;3.47;;;1.57;;
14247;SDS011;7208;49.826;6.004;2023-09-19T08:42:54;3.70;;;1.00;;
14247;SDS011;7208;49.826;6.004;2023-09-19T08:45:21;2.07;;;1.40;;
14247;SDS011;7208;49.826;6.004;2023-09-19T08:50:27;3.23;;;0.90;;
14247;SDS011;7208;49.826;6.004;2023-09-19T08:52:55;6.13;;;2.03;;
14247;SDS011;7208;49.826;6.004;2023-09-19T08:55:27;2.10;;;0.90;;
14247;SDS011;7208;49.826;6.004;2023-09-19T08:57:59;3.63;;;1.00;;
14247;SDS011;7208;49.826;6.004;2023-09-19T09:00:26;4.23;;;1.00;;
14247;SDS011;7208;49.826;6.004;2023-09-19T09:02:53;2.50;;;0.67;;
14247;SDS011;7208;49.826;6.004;2023-09-19T09:05:20;2.27;;;0.90;;
14247;SDS011;7208;49.826;6.004;2023-09-19T09:07:48;3.73;;;1.10;;
14247;SDS011;7208;49.826;6.004;2023-09-19T09:10:20;4.27;;;0.87;;
14247;SDS011;7208;49.826;6.004;2023-09-19T09:12:48;3.17;;;1.00;;
14247;SDS011;7208;49.826;6.004;2023-09-19T09:15:14;3.37;;;1.67;;
14247;SDS011;7208;49.826;6.004;2023-09-19T09:17:41;2.37;;;0.90;;
14247;SDS011;7208;49.826;6.004;2023-09-19T09:20:08;3.23;;;1.20;;
14247;SDS011;7208;49.826;6.004;2023-09-19T09:22:35;4.60;;;1.10;;
14247;SDS011;7208;49.826;6.004;2023-09-19T09:25:05;1.00;;;0.83;;
14247;SDS011;7208;49.826;6.004;2023-09-19T09:27:31;2.50;;;0.90;;
14247;SDS011;7208;49.826;6.004;2023-09-19T09:29:59;1.20;;;0.83;;
14247;SDS011;7208;49.826;6.004;2023-09-19T09:32:29;2.10;;;0.80;;
14247;SDS011;7208;49.826;6.004;2023-09-19T09:34:59;2.43;;;0.80;;
14247;SDS011;7208;49.826;6.004;2023-09-19T09:37:25;4.07;;;0.60;;
14247;SDS011;7208;49.826;6.004;2023-09-19T09:39:53;3.67;;;0.63;;
14247;SDS011;7208;49.826;6.004;2023-09-19T09:47:48;2.17;;;0.67;;
14247;SDS011;7208;49.826;6.004;2023-09-19T09:50:28;3.30;;;0.70;;
14247;SDS011;7208;49.826;6.004;2023-09-19T09:52:55;3.07;;;1.20;;
14247;SDS011;7208;49.826;6.004;2023-09-19T09:56:16;1.60;;;0.40;;
14247;SDS011;7208;49.826;6.004;2023-09-19T09:58:18;2.73;;;0.93;;
14247;SDS011;7208;49.826;6.004;2023-09-19T10:00:55;1.23;;;0.83;;
14247;SDS011;7208;49.826;6.004;2023-09-19T10:03:30;2.03;;;0.80;;
14247;SDS011;7208;49.826;6.004;2023-09-19T10:05:57;2.23;;;1.13;;
14247;SDS011;7208;49.826;6.004;2023-09-19T10:08:36;1.07;;;0.70;;
14247;SDS011;7208;49.826;6.004;2023-09-19T10:11:14;3.50;;;0.70;;
14247;SDS011;7208;49.826;6.004;2023-09-19T10:13:41;2.03;;;0.90;;
14247;SDS011;7208;49.826;6.004;2023-09-19T10:16:08;2.57;;;0.60;;
14247;SDS011;7208;49.826;6.004;2023-09-19T10:18:36;1.93;;;0.50;;
14247;SDS011;7208;49.826;6.004;2023-09-19T10:21:04;5.33;;;1.80;;
14247;SDS011;7208;49.826;6.004;2023-09-19T10:23:32;2.53;;;0.73;;
14247;SDS011;7208;49.826;6.004;2023-09-19T10:25:59;1.23;;;1.00;;
14247;SDS011;7208;49.826;6.004;2023-09-19T10:28:27;1.57;;;0.43;;
14247;SDS011;7208;49.826;6.004;2023-09-19T10:30:53;2.23;;;0.70;;
14247;SDS011;7208;49.826;6.004;2023-09-19T10:33:24;3.90;;;2.17;;
14247;SDS011;7208;49.826;6.004;2023-09-19T10:35:55;1.00;;;0.80;;
14247;SDS011;7208;49.826;6.004;2023-09-19T10:38:23;2.57;;;0.93;;
14247;SDS011;7208;49.826;6.004;2023-09-19T10:40:53;2.87;;;1.13;;
14247;SDS011;7208;49.826;6.004;2023-09-19T10:43:25;3.07;;;0.70;;
14247;SDS011;7208;49.826;6.004;2023-09-19T10:45:51;1.87;;;0.53;;
14247;SDS011;7208;49.826;6.004;2023-09-19T10:48:19;1.20;;;0.60;;
14247;SDS011;7208;49.826;6.004;2023-09-19T10:56:35;1.50;;;0.47;;
14247;SDS011;7208;49.826;6.004;2023-09-19T10:59:07;1.00;;;0.50;;
14247;SDS011;7208;49.826;6.004;2023-09-19T11:04:34;4.80;;;0.60;;
14247;SDS011;7208;49.826;6.004;2023-09-19T11:07:07;2.20;;;0.40;;
14247;SDS011;7208;49.826;6.004;2023-09-19T11:12:11;1.20;;;0.30;;
14247;SDS011;7208;49.826;6.004;2023-09-19T11:14:39;2.53;;;0.80;;
14247;SDS011;7208;49.826;6.004;2023-09-19T11:22:26;0.77;;;0.43;;
14247;SDS011;7208;49.826;6.004;2023-09-19T11:30:46;2.03;;;0.60;;
14247;SDS011;7208;49.826;6.004;2023-09-19T11:33:17;1.23;;;0.50;;
14247;SDS011;7208;49.826;6.004;2023-09-19T11:36:04;1.80;;;0.60;;
14247;SDS011;7208;49.826;6.004;2023-09-19T11:43:54;4.67;;;0.53;;
14247;SDS011;7208;49.826;6.004;2023-09-19T11:46:51;2.37;;;0.40;;
14247;SDS011;7208;49.826;6.004;2023-09-19T11:49:30;1.70;;;0.87;;
14247;SDS011;7208;49.826;6.004;2023-09-19T11:51:58;1.40;;;0.90;;
14247;SDS011;7208;49.826;6.004;2023-09-19T11:54:26;1.13;;;0.50;;
14247;SDS011;7208;49.826;6.004;2023-09-19T11:56:57;1.23;;;0.60;;
14247;SDS011;7208;49.826;6.004;2023-09-19T11:59:24;2.07;;;0.40;;
14247;SDS011;7208;49.826;6.004;2023-09-19T12:01:56;1.00;;;0.77;;
14247;SDS011;7208;49.826;6.004;2023-09-19T12:04:44;0.60;;;0.40;;
14247;SDS011;7208;49.826;6.004;2023-09-19T12:07:16;0.60;;;0.40;;
14247;SDS011;7208;49.826;6.004;2023-09-19T12:09:50;1.13;;;0.50;;
14247;SDS011;7208;49.826;6.004;2023-09-19T12:12:20;0.40;;;0.30;;
14247;SDS011;7208;49.826;6.004;2023-09-19T12:14:50;0.83;;;0.40;;
14247;SDS011;7208;49.826;6.004;2023-09-19T12:17:16;1.17;;;0.60;;
14247;SDS011;7208;49.826;6.004;2023-09-19T12:19:53;1.93;;;0.63;;
14247;SDS011;7208;49.826;6.004;2023-09-19T12:22:19;1.07;;;0.50;;
14247;SDS011;7208;49.826;6.004;2023-09-19T12:24:45;1.10;;;0.40;;
14247;SDS011;7208;49.826;6.004;2023-09-19T12:27:12;1.00;;;0.53;;
14247;SDS011;7208;49.826;6.004;2023-09-19T12:29:48;1.13;;;0.47;;
14247;SDS011;7208;49.826;6.004;2023-09-19T12:32:14;2.67;;;0.57;;
14247;SDS011;7208;49.826;6.004;2023-09-19T12:34:42;1.27;;;0.80;;
14247;SDS011;7208;49.826;6.004;2023-09-19T12:39:41;1.50;;;0.50;;
14247;SDS011;7208;49.826;6.004;2023-09-19T12:42:08;2.13;;;0.40;;
14247;SDS011;7208;49.826;6.004;2023-09-19T12:44:36;0.80;;;0.60;;
14247;SDS011;7208;49.826;6.004;2023-09-19T12:47:09;1.07;;;0.37;;
14247;SDS011;7208;49.826;6.004;2023-09-19T12:49:36;1.70;;;0.43;;
14247;SDS011;7208;49.826;6.004;2023-09-19T12:52:02;0.97;;;0.70;;
14247;SDS011;7208;49.826;6.004;2023-09-19T12:54:38;1.90;;;0.60;;
14247;SDS011;7208;49.826;6.004;2023-09-19T12:57:05;1.77;;;0.40;;
14247;SDS011;7208;49.826;6.004;2023-09-19T12:59:31;0.70;;;0.20;;
14247;SDS011;7208;49.826;6.004;2023-09-19T13:02:03;1.37;;;0.50;;
14247;SDS011;7208;49.826;6.004;2023-09-19T13:04:32;2.07;;;0.60;;
14247;SDS011;7208;49.826;6.004;2023-09-19T13:06:59;2.77;;;0.83;;
14247;SDS011;7208;49.826;6.004;2023-09-19T13:09:26;1.80;;;0.50;;
14247;SDS011;7208;49.826;6.004;2023-09-19T13:12:03;1.20;;;1.03;;
14247;SDS011;7208;49.826;6.004;2023-09-19T13:14:31;2.60;;;0.50;;
14247;SDS011;7208;49.826;6.004;2023-09-19T13:19:44;0.53;;;0.40;;
14247;SDS011;7208;49.826;6.004;2023-09-19T13:24:59;2.20;;;0.40;;
14247;SDS011;7208;49.826;6.004;2023-09-19T13:27:25;1.57;;;0.80;;
14247;SDS011;7208;49.826;6.004;2023-09-19T13:29:52;1.53;;;0.57;;
14247;SDS011;7208;49.826;6.004;2023-09-19T13:32:19;0.90;;;0.40;;
14247;SDS011;7208;49.826;6.004;2023-09-19T13:34:45;1.40;;;0.70;;
14247;SDS011;7208;49.826;6.004;2023-09-19T13:37:11;1.30;;;0.50;;
14247;SDS011;7208;49.826;6.004;2023-09-19T13:39:38;1.70;;;0.50;;
14247;SDS011;7208;49.826;6.004;2023-09-19T13:42:08;1.43;;;0.53;;
14247;SDS011;7208;49.826;6.004;2023-09-19T13:44:37;1.73;;;0.43;;
14247;SDS011;7208;49.826;6.004;2023-09-19T13:47:03;0.83;;;0.30;;
14247;SDS011;7208;49.826;6.004;2023-09-19T13:49:34;1.77;;;0.57;;
14247;SDS011;7208;49.826;6.004;2023-09-19T13:52:01;0.53;;;0.30;;
14247;SDS011;7208;49.826;6.004;2023-09-19T13:54:30;1.93;;;0.40;;
14247;SDS011;7208;49.826;6.004;2023-09-19T13:56:56;1.80;;;0.47;;
14247;SDS011;7208;49.826;6.004;2023-09-19T13:59:23;0.70;;;0.40;;
14247;SDS011;7208;49.826;6.004;2023-09-19T14:01:49;1.10;;;0.77;;
14247;SDS011;7208;49.826;6.004;2023-09-19T14:04:18;1.73;;;0.40;;
14247;SDS011;7208;49.826;6.004;2023-09-19T14:06:44;1.77;;;0.50;;
14247;SDS011;7208;49.826;6.004;2023-09-19T14:09:11;1.80;;;0.60;;
14247;SDS011;7208;49.826;6.004;2023-09-19T14:11:38;2.10;;;0.80;;
14247;SDS011;7208;49.826;6.004;2023-09-19T14:14:04;1.77;;;0.97;;
14247;SDS011;7208;49.826;6.004;2023-09-19T14:16:31;1.27;;;0.30;;
14247;SDS011;7208;49.826;6.004;2023-09-19T14:18:58;0.80;;;0.40;;
14247;SDS011;7208;49.826;6.004;2023-09-19T14:21:25;1.00;;;0.50;;
14247;SDS011;7208;49.826;6.004;2023-09-19T14:23:51;1.03;;;0.40;;
14247;SDS011;7208;49.826;6.004;2023-09-19T14:26:19;0.50;;;0.30;;
14247;SDS011;7208;49.826;6.004;2023-09-19T14:28:45;1.40;;;0.70;;
14247;SDS011;7208;49.826;6.004;2023-09-19T14:31:11;0.57;;;0.50;;
14247;SDS011;7208;49.826;6.004;2023-09-19T14:33:37;1.23;;;0.70;;
14247;SDS011;7208;49.826;6.004;2023-09-19T14:36:04;0.70;;;0.40;;
14247;SDS011;7208;49.826;6.004;2023-09-19T14:38:32;3.03;;;0.80;;
14247;SDS011;7208;49.826;6.004;2023-09-19T14:40:59;1.27;;;0.40;;
14247;SDS011;7208;49.826;6.004;2023-09-19T14:43:26;2.73;;;0.50;;
14247;SDS011;7208;49.826;6.004;2023-09-19T14:45:54;1.60;;;1.03;;
14247;SDS011;7208;49.826;6.004;2023-09-19T14:48:20;0.57;;;0.30;;
14247;SDS011;7208;49.826;6.004;2023-09-19T14:50:50;1.23;;;0.50;;
14247;SDS011;7208;49.826;6.004;2023-09-19T14:53:16;1.00;;;0.50;;
14247;SDS011;7208;49.826;6.004;2023-09-19T14:55:43;0.60;;;0.60;;
14247;SDS011;7208;49.826;6.004;2023-09-19T14:58:10;1.10;;;0.40;;
14247;SDS011;7208;49.826;6.004;2023-09-19T15:00:37;1.00;;;0.57;;
14247;SDS011;7208;49.826;6.004;2023-09-19T15:03:04;0.40;;;0.20;;
14247;SDS011;7208;49.826;6.004;2023-09-19T15:05:30;0.80;;;0.47;;
14247;SDS011;7208;49.826;6.004;2023-09-19T15:07:57;0.87;;;0.40;;
14247;SDS011;7208;49.826;6.004;2023-09-19T15:10:23;1.03;;;0.40;;
14247;SDS011;7208;49.826;6.004;2023-09-19T15:12:49;2.73;;;1.33;;
14247;SDS011;7208;49.826;6.004;2023-09-19T15:15:15;0.47;;;0.40;;
14247;SDS011;7208;49.826;6.004;2023-09-19T15:17:41;0.83;;;0.50;;
14247;SDS011;7208;49.826;6.004;2023-09-19T15:20:08;1.70;;;0.57;;
14247;SDS011;7208;49.826;6.004;2023-09-19T15:22:34;1.37;;;0.50;;
14247;SDS011;7208;49.826;6.004;2023-09-19T15:25:00;1.00;;;0.60;;
14247;SDS011;7208;49.826;6.004;2023-09-19T15:27:27;1.83;;;0.43;;
14247;SDS011;7208;49.826;6.004;2023-09-19T15:29:55;1.33;;;0.47;;
14247;SDS011;7208;49.826;6.004;2023-09-19T15:32:23;1.07;;;0.43;;
14247;SDS011;7208;49.826;6.004;2023-09-19T15:34:49;0.57;;;0.57;;
14247;SDS011;7208;49.826;6.004;2023-09-19T15:37:15;1.33;;;0.80;;
14247;SDS011;7208;49.826;6.004;2023-09-19T15:39:41;0.67;;;0.50;;
14247;SDS011;7208;49.826;6.004;2023-09-19T15:42:09;0.40;;;0.40;;
14247;SDS011;7208;49.826;6.004;2023-09-19T15:44:36;0.83;;;0.60;;
14247;SDS011;7208;49.826;6.004;2023-09-19T15:47:02;2.57;;;0.60;;
14247;SDS011;7208;49.826;6.004;2023-09-19T15:49:28;1.63;;;0.60;;
14247;SDS011;7208;49.826;6.004;2023-09-19T15:51:54;0.60;;;0.40;;
14247;SDS011;7208;49.826;6.004;2023-09-19T15:54:20;0.80;;;0.40;;
14247;SDS011;7208;49.826;6.004;2023-09-19T15:56:47;1.60;;;0.50;;
14247;SDS011;7208;49.826;6.004;2023-09-19T15:59:13;0.70;;;0.37;;
14247;SDS011;7208;49.826;6.004;2023-09-19T16:01:40;1.03;;;0.40;;
14247;SDS011;7208;49.826;6.004;2023-09-19T16:04:07;1.30;;;0.50;;